Time;durP1;ratioP1;P1;durP2;ratioP2;P2;SDS_P1;SDS_P2;PMS_P1;PMS_P2;Temp;Humidity;BMP_temperature;BMP_pressure;BME280_temperature;BME280_humidity;BME280_pressure;Samples;Min_cycle;Max_cycle;Signal;HPM_P1;HPM_P2
2024/01/16 00:01:19;;;;;;;5.60;1.03;;;0.70;99.90;;;;;;5013702;28;20053;-84
2024/01/16 00:03:45;;;;;;;7.40;1.20;;;0.70;99.90;;;;;;5015062;28;20026;-84
2024/01/16 00:06:11;;;;;;;5.40;0.90;;;0.70;99.90;;;;;;5014529;28;20510;-84
2024/01/16 00:08:36;;;;;;;9.63;1.07;;;0.70;99.90;;;;;;5013547;28;20053;-85
2024/01/16 00:11:03;;;;;;;5.67;1.57;;;0.60;99.90;;;;;;5013453;28;20494;-84
2024/01/16 00:13:28;;;;;;;5.40;0.73;;;0.60;99.90;;;;;;5014633;28;20030;-84
2024/01/16 00:15:56;;;;;;;5.60;1.57;;;0.60;99.90;;;;;;5013171;28;20386;-84
2024/01/16 00:18:22;;;;;;;2.63;1.23;;;0.50;99.90;;;;;;5013288;28;20022;-84
2024/01/16 00:20:47;;;;;;;6.13;0.63;;;0.50;99.90;;;;;;5012822;28;20398;-83
2024/01/16 00:23:13;;;;;;;5.30;1.17;;;0.50;99.90;;;;;;5014471;28;20151;-84
2024/01/16 00:25:39;;;;;;;6.33;1.00;;;0.40;99.90;;;;;;5014421;28;20025;-83
2024/01/16 00:28:05;;;;;;;7.37;1.10;;;0.40;99.90;;;;;;5014051;28;20486;-83
2024/01/16 00:30:30;;;;;;;6.83;1.07;;;0.40;99.90;;;;;;5013061;28;20036;-83
2024/01/16 00:32:57;;;;;;;6.20;1.03;;;0.30;99.90;;;;;;5012831;28;20393;-83
2024/01/16 00:35:23;;;;;;;7.90;0.90;;;0.30;99.90;;;;;;5013069;28;20061;-83
2024/01/16 00:37:49;;;;;;;8.73;1.23;;;0.30;99.90;;;;;;5012661;28;20482;-82
2024/01/16 00:40:14;;;;;;;8.73;1.17;;;0.20;99.90;;;;;;5012905;28;20096;-83
2024/01/16 00:42:42;;;;;;;6.40;1.00;;;0.20;99.90;;;;;;5014172;28;20080;-83
2024/01/16 00:45:08;;;;;;;8.60;1.20;;;0.20;99.90;;;;;;5012922;28;20034;-83
2024/01/16 00:47:34;;;;;;;10.17;1.20;;;0.20;99.90;;;;;;5014085;28;20026;-83
2024/01/16 00:50:02;;;;;;;5.50;0.93;;;0.10;99.90;;;;;;5012573;28;20088;-83
2024/01/16 00:52:29;;;;;;;6.03;1.00;;;0.20;99.90;;;;;;5014227;28;20026;-83
2024/01/16 00:54:54;;;;;;;5.20;0.80;;;0.30;99.90;;;;;;5013865;28;20030;-83
2024/01/16 00:57:21;;;;;;;9.47;0.70;;;0.30;99.90;;;;;;5013907;28;20041;-83
2024/01/16 00:59:46;;;;;;;6.13;0.90;;;0.30;99.90;;;;;;5013919;28;20103;-83
2024/01/16 01:02:12;;;;;;;6.80;0.90;;;0.30;99.90;;;;;;5013781;28;20474;-82
2024/01/16 01:04:38;;;;;;;7.30;1.00;;;0.30;99.90;;;;;;5012116;28;20033;-82
2024/01/16 01:07:04;;;;;;;8.13;1.00;;;0.30;99.90;;;;;;5012539;28;20060;-82
2024/01/16 01:09:32;;;;;;;5.17;0.73;;;0.30;99.90;;;;;;5012430;28;20381;-82
2024/01/16 01:11:58;;;;;;;8.60;0.87;;;0.30;99.90;;;;;;5013763;28;20438;-83
2024/01/16 01:14:25;;;;;;;7.37;1.13;;;0.40;99.90;;;;;;5012431;28;20021;-82
2024/01/16 01:16:51;;;;;;;6.37;0.83;;;0.40;99.90;;;;;;5012117;28;20029;-83
2024/01/16 01:19:17;;;;;;;5.63;0.80;;;0.40;99.90;;;;;;5013459;28;20026;-83
2024/01/16 01:21:42;;;;;;;11.20;0.93;;;0.50;99.90;;;;;;5013177;28;20041;-83
2024/01/16 01:24:09;;;;;;;13.90;1.13;;;0.50;99.90;;;;;;5011770;28;20381;-82
2024/01/16 01:26:35;;;;;;;5.33;1.40;;;0.50;99.90;;;;;;5028892;28;20377;-82
2024/01/16 01:29:01;;;;;;;6.23;0.90;;;0.60;99.90;;;;;;5012384;28;20034;-83
2024/01/16 01:31:26;;;;;;;6.47;0.93;;;0.60;99.90;;;;;;5012863;28;20030;-83
2024/01/16 01:33:52;;;;;;;7.50;1.97;;;0.60;99.90;;;;;;5012191;28;20021;-82
2024/01/16 01:36:18;;;;;;;9.70;1.40;;;0.50;99.90;;;;;;5012323;28;20061;-82
2024/01/16 01:38:44;;;;;;;7.53;0.77;;;0.60;99.90;;;;;;5014010;28;20112;-83
2024/01/16 01:41:11;;;;;;;7.83;0.70;;;0.60;99.90;;;;;;5012632;28;20474;-83
2024/01/16 01:43:38;;;;;;;14.63;1.40;;;0.60;99.90;;;;;;5013306;28;20061;-82
2024/01/16 01:46:20;;;;;;;5.53;1.03;;;0.60;99.90;;;;;;5013294;28;20053;-83
2024/01/16 01:48:50;;;;;;;4.20;1.00;;;0.50;99.90;;;;;;5013360;28;20033;-83
2024/01/16 01:51:18;;;;;;;4.23;0.90;;;0.50;99.90;;;;;;5012994;28;20022;-82
2024/01/16 01:53:46;;;;;;;3.47;0.90;;;0.50;99.90;;;;;;5013073;28;20109;-83
2024/01/16 01:56:15;;;;;;;3.33;0.90;;;0.50;99.90;;;;;;5013252;28;20071;-83
2024/01/16 01:58:44;;;;;;;6.27;0.87;;;0.50;99.90;;;;;;5013016;28;20025;-83
2024/01/16 02:01:10;;;;;;;6.80;1.10;;;0.50;99.90;;;;;;5011801;28;20065;-83
2024/01/16 02:03:41;;;;;;;6.07;1.80;;;0.50;99.90;;;;;;5011752;28;20153;-83
2024/01/16 02:06:07;;;;;;;4.57;1.00;;;0.50;99.90;;;;;;5012889;28;20120;-83
2024/01/16 02:08:33;;;;;;;3.43;1.00;;;0.50;99.90;;;;;;5012921;28;20026;-83
2024/01/16 02:10:59;;;;;;;6.67;1.37;;;0.50;99.90;;;;;;5011800;28;20022;-82
2024/01/16 02:13:24;;;;;;;5.63;1.20;;;0.50;99.90;;;;;;5011625;28;20026;-82
2024/01/16 02:15:52;;;;;;;4.67;1.10;;;0.50;99.90;;;;;;5011782;28;20022;-82
2024/01/16 02:18:18;;;;;;;6.33;1.50;;;0.50;99.90;;;;;;5011634;28;20112;-82
2024/01/16 02:20:45;;;;;;;10.03;1.57;;;0.50;99.90;;;;;;5012444;28;20132;-82
2024/01/16 02:23:13;;;;;;;6.67;1.73;;;0.50;99.90;;;;;;5012790;28;20084;-83
2024/01/16 02:25:43;;;;;;;7.53;1.43;;;0.50;99.90;;;;;;5012778;28;20026;-83
2024/01/16 02:28:09;;;;;;;7.00;1.90;;;0.50;99.90;;;;;;5011632;28;20033;-84
2024/01/16 02:30:34;;;;;;;6.83;1.80;;;0.50;99.90;;;;;;5011544;28;20390;-83
2024/01/16 02:33:00;;;;;;;6.73;2.27;;;0.50;99.90;;;;;;5012312;28;20026;-83
2024/01/16 02:35:26;;;;;;;8.23;3.03;;;0.50;99.90;;;;;;5027851;28;20052;-83
2024/01/16 02:37:52;;;;;;;12.10;4.50;;;0.60;99.90;;;;;;5011450;28;20111;-83
2024/01/16 02:40:18;;;;;;;11.23;4.80;;;0.60;99.90;;;;;;5012648;28;20030;-82
2024/01/16 02:42:44;;;;;;;13.77;6.93;;;0.60;99.90;;;;;;5011314;28;20564;-83
2024/01/16 02:45:09;;;;;;;15.07;6.90;;;0.70;99.90;;;;;;5011471;28;20116;-82
2024/01/16 02:47:35;;;;;;;13.37;6.40;;;0.70;99.90;;;;;;5012629;28;20050;-83
2024/01/16 02:50:06;;;;;;;16.93;7.07;;;0.70;99.90;;;;;;5012548;28;20501;-82
2024/01/16 02:52:31;;;;;;;16.37;7.83;;;0.80;99.90;;;;;;5027781;28;20482;-82
2024/01/16 02:54:57;;;;;;;15.53;6.83;;;0.80;99.90;;;;;;5014002;28;20021;-82
2024/01/16 02:57:22;;;;;;;15.70;7.10;;;0.80;99.90;;;;;;5016097;28;20096;-82
2024/01/16 02:59:48;;;;;;;15.47;6.87;;;0.90;99.90;;;;;;5015987;28;20088;-82
2024/01/16 03:02:14;;;;;;;16.20;7.80;;;0.90;99.90;;;;;;5031242;28;20026;-83
2024/01/16 03:04:39;;;;;;;15.17;7.53;;;1.00;99.90;;;;;;5014339;28;20029;-82
2024/01/16 03:07:05;;;;;;;15.50;6.47;;;1.00;99.90;;;;;;5016593;28;20018;-82
2024/01/16 03:09:31;;;;;;;12.57;6.00;;;1.00;99.90;;;;;;5015792;28;20026;-82
2024/01/16 03:11:57;;;;;;;16.67;6.77;;;1.10;99.90;;;;;;5031125;28;20026;-83
2024/01/16 03:14:23;;;;;;;19.00;6.30;;;1.10;99.90;;;;;;5015695;28;20497;-83
2024/01/16 03:16:49;;;;;;;16.00;5.73;;;1.10;99.90;;;;;;5014287;28;20022;-83
2024/01/16 03:19:15;;;;;;;13.43;5.43;;;1.10;99.90;;;;;;5014279;28;20121;-83
2024/01/16 03:21:41;;;;;;;11.77;5.77;;;1.10;99.90;;;;;;5014239;28;20061;-83
2024/01/16 03:24:07;;;;;;;15.83;6.07;;;1.10;99.90;;;;;;5015948;28;20117;-83
2024/01/16 03:26:33;;;;;;;10.63;4.70;;;1.10;99.90;;;;;;5014372;28;20025;-83
2024/01/16 03:29:00;;;;;;;16.20;5.37;;;1.20;99.90;;;;;;5015522;28;20106;-83
2024/01/16 03:31:25;;;;;;;11.50;5.10;;;1.20;99.90;;;;;;5013700;28;20124;-83
2024/01/16 03:33:51;;;;;;;11.50;5.20;;;1.10;99.90;;;;;;5015203;28;20112;-83
2024/01/16 03:36:17;;;;;;;10.80;4.27;;;1.20;99.90;;;;;;5015274;28;20064;-83
2024/01/16 03:38:43;;;;;;;12.60;5.50;;;1.20;99.90;;;;;;5015145;28;20118;-83
2024/01/16 03:41:10;;;;;;;14.60;4.97;;;1.20;99.90;;;;;;5013761;28;20029;-83
2024/01/16 03:43:36;;;;;;;14.53;4.27;;;1.20;99.90;;;;;;5015160;28;20393;-83
2024/01/16 03:46:02;;;;;;;14.13;4.87;;;1.30;99.90;;;;;;5013808;28;20019;-83
2024/01/16 03:48:28;;;;;;;12.93;4.70;;;1.20;99.90;;;;;;5014914;28;20030;-83
2024/01/16 03:50:55;;;;;;;10.30;4.30;;;1.30;99.90;;;;;;5015100;28;20026;-83
2024/01/16 03:53:21;;;;;;;10.97;3.10;;;1.30;99.90;;;;;;5015137;28;20022;-83
2024/01/16 03:55:47;;;;;;;8.30;3.10;;;1.30;99.90;;;;;;5014840;28;20033;-83
2024/01/16 03:58:13;;;;;;;16.97;4.43;;;1.40;99.90;;;;;;5015009;28;20030;-83
2024/01/16 04:00:38;;;;;;;11.27;3.13;;;1.30;99.90;;;;;;5014673;28;20053;-83
2024/01/16 04:03:04;;;;;;;10.80;3.20;;;1.30;99.90;;;;;;5015141;28;20025;-83
2024/01/16 04:05:30;;;;;;;11.23;3.47;;;1.30;99.90;;;;;;5012940;28;20446;-83
2024/01/16 04:07:58;;;;;;;12.13;3.63;;;1.30;99.90;;;;;;5013572;28;20112;-83
2024/01/16 04:10:24;;;;;;;9.87;2.87;;;1.30;99.90;;;;;;4997080;28;20034;-83
2024/01/16 04:12:51;;;;;;;14.53;3.77;;;1.30;99.90;;;;;;5014898;28;20088;-83
2024/01/16 04:15:16;;;;;;;7.63;2.60;;;1.30;99.90;;;;;;5013556;28;20478;-83
2024/01/16 04:17:42;;;;;;;7.70;2.73;;;1.30;99.90;;;;;;5014623;28;20097;-83
2024/01/16 04:20:09;;;;;;;8.37;3.20;;;1.30;99.90;;;;;;5014267;28;20447;-83
2024/01/16 04:22:35;;;;;;;6.20;2.43;;;1.40;99.90;;;;;;5012992;28;20553;-83
2024/01/16 04:25:01;;;;;;;6.30;2.83;;;1.30;99.90;;;;;;5013267;28;20014;-83
2024/01/16 04:27:27;;;;;;;9.80;2.37;;;1.40;99.90;;;;;;5014456;28;20022;-83
2024/01/16 04:29:53;;;;;;;5.70;2.50;;;1.30;99.90;;;;;;5014441;28;20022;-82
2024/01/16 04:32:19;;;;;;;6.37;2.37;;;1.40;99.90;;;;;;5012479;28;20026;-82
2024/01/16 04:34:44;;;;;;;10.43;2.40;;;1.40;99.90;;;;;;5014551;28;20026;-83
2024/01/16 04:37:10;;;;;;;9.63;2.60;;;1.40;99.90;;;;;;5014247;28;20033;-83
2024/01/16 04:39:36;;;;;;;8.27;2.60;;;1.40;99.90;;;;;;5014200;28;20030;-84
2024/01/16 04:42:01;;;;;;;8.80;2.17;;;1.30;99.90;;;;;;5012654;28;20470;-83
2024/01/16 04:44:28;;;;;;;4.90;1.67;;;1.30;99.90;;;;;;5012882;28;20385;-83
2024/01/16 04:46:54;;;;;;;9.40;2.00;;;1.40;99.90;;;;;;5012718;28;20149;-83
2024/01/16 04:49:19;;;;;;;10.77;1.83;;;1.30;99.90;;;;;;5012736;28;20129;-83
2024/01/16 04:51:45;;;;;;;9.97;2.10;;;1.30;99.90;;;;;;5012483;28;20066;-83
2024/01/16 04:54:12;;;;;;;10.67;2.60;;;1.30;99.90;;;;;;5013691;28;20084;-83
2024/01/16 04:56:37;;;;;;;6.50;2.10;;;1.30;99.90;;;;;;5012492;28;20025;-83
2024/01/16 04:59:03;;;;;;;11.13;2.33;;;1.30;99.90;;;;;;5013751;28;20108;-83
2024/01/16 05:01:29;;;;;;;7.37;2.80;;;1.30;99.90;;;;;;5013777;28;20474;-83
2024/01/16 05:03:54;;;;;;;5.07;2.27;;;1.30;99.90;;;;;;5012294;28;20506;-84
2024/01/16 05:06:21;;;;;;;6.27;2.37;;;1.30;99.90;;;;;;5012319;28;20026;-83
2024/01/16 05:08:46;;;;;;;6.37;2.87;;;1.30;99.90;;;;;;5013577;28;20036;-83
2024/01/16 05:11:13;;;;;;;7.30;2.23;;;1.30;99.90;;;;;;5014559;28;20022;-83
2024/01/16 05:13:39;;;;;;;10.90;3.77;;;1.40;99.90;;;;;;5029981;28;20030;-83
2024/01/16 05:16:05;;;;;;;8.43;3.30;;;1.50;99.90;;;;;;5032175;28;20017;-83
2024/01/16 05:18:33;;;;;;;10.60;3.30;;;1.40;99.90;;;;;;5032858;28;20444;-83
2024/01/16 05:20:59;;;;;;;11.03;3.40;;;1.40;99.90;;;;;;5032987;28;20057;-83
2024/01/16 05:23:25;;;;;;;10.30;3.87;;;1.40;99.90;;;;;;5033101;28;20150;-83
2024/01/16 05:25:50;;;;;;;6.70;2.47;;;1.30;99.90;;;;;;5033247;28;20034;-83
2024/01/16 05:28:16;;;;;;;9.77;2.97;;;1.30;99.90;;;;;;5033083;28;20026;-83
2024/01/16 05:30:41;;;;;;;8.07;2.40;;;1.40;99.90;;;;;;5031703;28;20021;-84
2024/01/16 05:33:08;;;;;;;6.10;2.20;;;1.40;99.90;;;;;;5032784;28;20116;-83
2024/01/16 05:35:35;;;;;;;5.60;2.10;;;1.40;99.90;;;;;;5031712;28;20021;-84
2024/01/16 05:38:01;;;;;;;7.60;1.67;;;1.40;99.90;;;;;;5031596;28;20064;-83
2024/01/16 05:40:27;;;;;;;6.27;2.03;;;1.40;99.90;;;;;;5031562;28;20018;-83
2024/01/16 05:42:53;;;;;;;6.93;1.37;;;1.40;99.90;;;;;;5031826;28;20017;-83
2024/01/16 05:45:19;;;;;;;7.53;1.30;;;1.30;99.90;;;;;;5033133;28;20049;-83
2024/01/16 05:47:45;;;;;;;8.63;1.50;;;1.40;99.90;;;;;;5032807;28;20556;-82
2024/01/16 05:50:10;;;;;;;4.63;1.13;;;1.30;99.90;;;;;;5033119;28;20026;-82
2024/01/16 05:52:37;;;;;;;6.67;1.67;;;1.40;99.90;;;;;;5032518;28;20472;-82
2024/01/16 05:55:04;;;;;;;5.87;1.50;;;1.40;99.90;;;;;;5031601;28;20037;-82
2024/01/16 05:57:33;;;;;;;6.63;1.40;;;1.40;99.90;;;;;;5032646;28;20051;-81
2024/01/16 06:00:02;;;;;;;9.00;1.60;;;1.40;99.90;;;;;;5032576;28;20026;-82
2024/01/16 06:02:28;;;;;;;7.00;1.37;;;1.40;99.90;;;;;;5031457;28;20029;-82
2024/01/16 06:04:53;;;;;;;7.63;1.43;;;1.40;99.90;;;;;;5031197;28;20087;-82
2024/01/16 06:07:19;;;;;;;9.73;1.73;;;1.40;99.90;;;;;;5032735;28;20465;-82
2024/01/16 06:09:45;;;;;;;6.97;1.40;;;1.40;99.90;;;;;;5031396;28;20030;-82
2024/01/16 06:12:12;;;;;;;8.23;1.83;;;1.40;99.90;;;;;;5032491;28;20552;-82
2024/01/16 06:14:37;;;;;;;10.90;1.57;;;1.40;99.90;;;;;;5031172;28;20029;-81
2024/01/16 06:17:05;;;;;;;7.70;1.20;;;1.40;99.90;;;;;;5030973;28;20022;-82
2024/01/16 06:19:31;;;;;;;6.23;1.33;;;1.40;99.90;;;;;;5029622;28;20409;-83
2024/01/16 06:21:59;;;;;;;8.53;1.70;;;1.50;99.90;;;;;;5021087;28;20054;-83
2024/01/16 06:24:25;;;;;;;7.30;1.57;;;1.50;99.90;;;;;;5022759;28;20057;-83
2024/01/16 06:26:51;;;;;;;5.60;1.90;;;1.50;99.90;;;;;;5022655;28;20112;-84
2024/01/16 06:29:16;;;;;;;9.77;1.47;;;1.50;99.90;;;;;;5023272;28;20021;-83
2024/01/16 06:31:42;;;;;;;4.33;1.13;;;1.50;99.90;;;;;;5025386;28;20025;-84
2024/01/16 06:34:08;;;;;;;7.83;1.50;;;1.50;99.90;;;;;;5015099;28;20065;-83
2024/01/16 06:36:34;;;;;;;4.73;1.77;;;1.50;99.90;;;;;;5015154;28;20033;-83
2024/01/16 06:39:01;;;;;;;5.13;1.47;;;1.50;99.90;;;;;;5016448;28;20025;-83
2024/01/16 06:41:26;;;;;;;5.23;1.60;;;1.50;99.90;;;;;;5015335;28;20022;-82
2024/01/16 06:43:52;;;;;;;10.00;1.63;;;1.50;99.90;;;;;;5016505;28;20050;-83
2024/01/16 06:46:18;;;;;;;7.40;1.90;;;1.50;99.90;;;;;;5015041;28;20034;-81
2024/01/16 06:48:43;;;;;;;7.50;1.63;;;1.50;99.90;;;;;;5025914;28;20037;-83
2024/01/16 06:51:10;;;;;;;10.73;1.63;;;1.50;99.90;;;;;;5035064;28;20041;-81
2024/01/16 06:53:36;;;;;;;9.73;2.20;;;1.50;99.90;;;;;;5035922;28;20057;-81
2024/01/16 06:56:03;;;;;;;8.90;3.10;;;1.50;99.90;;;;;;5036333;28;20029;-82
2024/01/16 06:58:28;;;;;;;10.43;1.70;;;1.50;99.90;;;;;;5035726;28;20022;-81
2024/01/16 07:00:54;;;;;;;8.57;1.57;;;1.50;99.90;;;;;;5035620;28;20485;-82
2024/01/16 07:03:19;;;;;;;9.07;2.00;;;1.40;99.90;;;;;;5035736;28;20362;-82
2024/01/16 07:05:45;;;;;;;10.23;2.23;;;1.50;99.90;;;;;;5035673;28;20489;-82
2024/01/16 07:08:11;;;;;;;11.97;2.37;;;1.50;99.90;;;;;;5035462;28;20030;-82
2024/01/16 07:10:36;;;;;;;5.60;1.33;;;1.50;99.90;;;;;;5035836;28;20025;-82
2024/01/16 07:13:03;;;;;;;10.80;2.37;;;1.50;99.90;;;;;;5034101;28;20017;-82
2024/01/16 07:15:28;;;;;;;8.50;2.10;;;1.50;99.90;;;;;;5035440;28;20045;-82
2024/01/16 07:17:54;;;;;;;7.37;1.90;;;1.50;99.90;;;;;;5035456;28;20036;-82
2024/01/16 07:20:19;;;;;;;4.67;1.83;;;1.60;99.90;;;;;;5033946;28;20017;-82
2024/01/16 07:22:45;;;;;;;7.43;2.27;;;1.60;99.90;;;;;;5035218;28;20029;-82
2024/01/16 07:25:11;;;;;;;4.23;1.60;;;1.60;99.90;;;;;;5034940;28;20485;-82
2024/01/16 07:27:37;;;;;;;9.80;2.80;;;1.60;99.90;;;;;;5033439;28;20393;-82
2024/01/16 07:30:07;;;;;;;8.73;3.17;;;1.60;99.90;;;;;;5035370;28;20017;-81
2024/01/16 07:32:33;;;;;;;11.23;3.40;;;1.70;99.90;;;;;;5034954;28;20022;-81
2024/01/16 07:34:59;;;;;;;9.93;4.10;;;1.70;99.90;;;;;;5034947;28;20030;-82
2024/01/16 07:37:24;;;;;;;10.27;4.53;;;1.70;99.90;;;;;;5035009;28;20474;-82
2024/01/16 07:39:50;;;;;;;11.30;3.97;;;1.70;99.90;;;;;;5032729;28;20081;-82
2024/01/16 07:42:16;;;;;;;13.10;5.40;;;1.70;99.90;;;;;;5034882;28;20098;-82
2024/01/16 07:44:42;;;;;;;14.57;4.77;;;1.70;99.90;;;;;;5033823;28;20022;-82
2024/01/16 07:47:07;;;;;;;16.43;6.10;;;1.70;99.90;;;;;;5033576;28;20026;-82
2024/01/16 07:49:34;;;;;;;18.27;6.53;;;1.70;99.90;;;;;;5034940;28;20017;-85
2024/01/16 07:51:59;;;;;;;13.07;5.93;;;1.70;99.90;;;;;;5035100;28;20029;-84
2024/01/16 07:54:25;;;;;;;12.90;6.03;;;1.70;99.90;;;;;;5033709;28;20132;-84
2024/01/16 07:56:51;;;;;;;16.30;6.40;;;1.70;99.90;;;;;;5035801;28;20025;-84
2024/01/16 07:59:17;;;;;;;16.43;6.70;;;1.70;99.90;;;;;;5033331;28;20072;-85
2024/01/16 08:01:43;;;;;;;15.23;7.83;;;1.70;99.90;;;;;;5034681;28;20536;-85
2024/01/16 08:04:08;;;;;;;19.23;8.33;;;1.70;99.90;;;;;;5034739;28;20025;-85
2024/01/16 08:06:34;;;;;;;14.33;7.20;;;1.70;99.90;;;;;;5033173;28;20025;-84
2024/01/16 08:09:00;;;;;;;18.63;8.10;;;1.70;99.90;;;;;;5034588;28;20097;-84
2024/01/16 08:11:25;;;;;;;16.43;8.67;;;1.80;99.90;;;;;;5033037;28;20124;-84
2024/01/16 08:13:51;;;;;;;20.30;8.60;;;1.70;99.90;;;;;;5034443;28;20021;-84
2024/01/16 08:16:17;;;;;;;18.17;8.47;;;1.70;99.90;;;;;;5034488;28;20055;-84
2024/01/16 08:18:42;;;;;;;14.70;8.33;;;1.80;99.90;;;;;;5034360;28;20034;-84
2024/01/16 08:21:08;;;;;;;22.10;7.93;;;1.70;99.90;;;;;;5034032;28;20049;-84
2024/01/16 08:23:34;;;;;;;17.43;7.60;;;1.80;99.90;;;;;;5033950;28;20033;-84
2024/01/16 08:26:00;;;;;;;20.30;9.33;;;1.70;99.90;;;;;;5032891;28;20117;-85
2024/01/16 08:28:26;;;;;;;14.37;7.97;;;1.70;99.90;;;;;;5025398;28;20021;-84
2024/01/16 08:30:52;;;;;;;18.97;8.70;;;1.70;99.90;;;;;;5014442;28;20040;-84
2024/01/16 08:33:18;;;;;;;16.57;8.23;;;1.80;99.90;;;;;;5013045;28;20033;-85
2024/01/16 08:35:44;;;;;;;15.87;8.20;;;1.70;99.90;;;;;;5014157;28;20044;-84
2024/01/16 08:38:09;;;;;;;16.97;7.30;;;1.70;99.90;;;;;;5014450;28;20100;-84
2024/01/16 08:40:35;;;;;;;17.60;6.77;;;1.70;99.90;;;;;;5030089;28;20470;-82
2024/01/16 08:43:01;;;;;;;15.17;7.50;;;1.80;99.90;;;;;;5029572;28;20026;-84
2024/01/16 08:45:26;;;;;;;12.50;6.03;;;1.70;99.90;;;;;;5014096;28;20474;-84
2024/01/16 08:47:52;;;;;;;15.13;5.87;;;1.80;99.90;;;;;;5014300;28;20087;-85
2024/01/16 08:50:18;;;;;;;14.37;6.27;;;1.70;99.90;;;;;;5014112;28;20034;-84
2024/01/16 08:52:44;;;;;;;10.47;5.30;;;1.80;99.90;;;;;;5013711;28;20160;-85
2024/01/16 08:55:10;;;;;;;17.77;5.93;;;1.70;99.90;;;;;;5029254;28;20030;-84
2024/01/16 08:57:37;;;;;;;13.67;5.50;;;1.70;99.90;;;;;;5013960;28;20045;-84
2024/01/16 09:00:06;;;;;;;12.47;4.63;;;1.70;99.90;;;;;;5029012;28;20032;-85
2024/01/16 09:02:31;;;;;;;13.03;5.17;;;1.70;99.90;;;;;;5014141;28;20030;-85
2024/01/16 09:04:58;;;;;;;13.07;4.90;;;1.80;99.90;;;;;;5013736;28;20025;-85
2024/01/16 09:07:24;;;;;;;14.43;5.53;;;1.80;99.90;;;;;;5013703;28;20026;-85
2024/01/16 09:09:50;;;;;;;9.63;4.43;;;1.90;99.90;;;;;;5029008;28;20489;-84
2024/01/16 09:12:16;;;;;;;10.73;4.43;;;1.80;99.90;;;;;;5013798;28;20029;-85
2024/01/16 09:14:41;;;;;;;13.53;4.90;;;1.80;99.90;;;;;;5013810;28;20053;-85
2024/01/16 09:17:07;;;;;;;11.90;4.63;;;1.90;99.90;;;;;;5013807;28;20087;-85
2024/01/16 09:19:33;;;;;;;12.73;3.93;;;1.90;99.90;;;;;;5013269;28;20030;-84
2024/01/16 09:21:59;;;;;;;12.97;4.50;;;1.90;99.90;;;;;;5012066;28;20076;-84
2024/01/16 09:24:25;;;;;;;11.33;3.40;;;2.00;99.90;;;;;;5013550;28;20034;-84
2024/01/16 09:26:51;;;;;;;13.20;4.03;;;2.00;99.90;;;;;;5014025;28;20033;-84
2024/01/16 09:29:16;;;;;;;9.40;3.97;;;1.90;99.90;;;;;;5013429;28;20030;-83
2024/01/16 09:31:42;;;;;;;11.03;4.30;;;2.10;99.90;;;;;;5028517;28;20080;-84
2024/01/16 09:34:08;;;;;;;10.97;4.37;;;2.10;99.90;;;;;;5013640;28;20093;-84
2024/01/16 09:36:36;;;;;;;7.83;3.50;;;2.10;99.90;;;;;;5013229;28;20458;-84
2024/01/16 09:39:07;;;;;;;11.90;4.90;;;2.10;99.90;;;;;;5013326;28;20470;-83
2024/01/16 09:41:34;;;;;;;9.63;3.73;;;2.20;99.90;;;;;;5013987;28;20026;-85
2024/01/16 09:43:59;;;;;;;13.03;4.07;;;2.20;99.90;;;;;;5028419;28;20014;-83
2024/01/16 09:46:26;;;;;;;7.70;3.03;;;2.20;99.90;;;;;;5028450;28;20528;-83
2024/01/16 09:48:55;;;;;;;7.73;3.93;;;2.20;99.90;;;;;;5028353;28;20029;-83
2024/01/16 09:51:21;;;;;;;11.17;3.83;;;2.10;99.90;;;;;;5012936;28;20056;-83
2024/01/16 09:53:47;;;;;;;11.70;3.80;;;2.10;99.90;;;;;;5013329;28;20054;-84
2024/01/16 09:56:17;;;;;;;13.70;3.83;;;2.20;99.90;;;;;;5012069;28;20025;-84
2024/01/16 09:58:48;;;;;;;12.07;3.67;;;2.20;99.90;;;;;;5028528;28;20053;-84
2024/01/16 10:01:16;;;;;;;10.00;3.93;;;2.10;99.90;;;;;;5028188;28;20544;-84
2024/01/16 10:03:44;;;;;;;10.23;3.70;;;2.10;99.90;;;;;;5016098;28;20033;-84
2024/01/16 10:06:11;;;;;;;9.30;3.73;;;2.10;99.90;;;;;;5032309;28;20050;-84
2024/01/16 10:08:37;;;;;;;10.70;3.20;;;2.10;99.90;;;;;;5032155;28;20054;-84
2024/01/16 10:11:03;;;;;;;11.20;3.30;;;2.10;99.90;;;;;;5017069;28;20030;-84
2024/01/16 10:13:29;;;;;;;10.70;3.67;;;2.20;99.90;;;;;;5017071;28;20053;-84
2024/01/16 10:15:55;;;;;;;9.97;3.27;;;2.20;99.90;;;;;;5016934;28;20079;-83
2024/01/16 10:18:32;;;;;;;15.67;4.37;;;2.20;99.90;;;;;;5016878;28;20077;-84
2024/01/16 10:20:57;;;;;;;11.20;3.97;;;2.30;99.90;;;;;;5016378;28;20042;-84
2024/01/16 10:23:24;;;;;;;10.13;2.77;;;2.30;99.90;;;;;;5016960;28;20168;-84
2024/01/16 10:26:09;;;;;;;7.70;3.37;;;2.40;99.90;;;;;;5017448;28;20037;-84
2024/01/16 10:28:35;;;;;;;;;;;2.40;99.90;;;;;;5016349;28;20033;-83
2024/01/16 10:31:03;;;;;;;9.87;3.13;;;2.50;99.90;;;;;;5016679;28;19905;-84
2024/01/16 10:33:29;;;;;;;10.70;3.23;;;2.50;99.90;;;;;;5016330;28;20034;-83
2024/01/16 10:36:16;;;;;;;8.80;2.60;;;2.50;99.90;;;;;;5031613;28;20037;-84
2024/01/16 10:38:43;;;;;;;6.97;2.83;;;2.60;99.90;;;;;;5016563;28;20037;-84
2024/01/16 10:41:10;;;;;;;6.70;2.87;;;2.60;99.90;;;;;;5016467;28;20022;-84
2024/01/16 10:43:36;;;;;;;6.43;2.23;;;2.70;99.90;;;;;;5031810;28;20117;-83
2024/01/16 10:46:14;;;;;;;17.40;3.50;;;2.80;99.90;;;;;;5031291;28;20032;-84
2024/01/16 10:48:43;;;;;;;7.23;2.47;;;2.80;99.90;;;;;;5016259;28;20482;-83
2024/01/16 10:51:12;;;;;;;7.33;2.30;;;2.90;99.90;;;;;;5016399;28;20026;-84
2024/01/16 10:53:44;;;;;;;5.40;1.93;;;3.00;99.90;;;;;;5016258;28;20412;-83
2024/01/16 10:56:13;;;;;;;8.37;2.70;;;3.30;99.90;;;;;;5016202;28;20030;-83
2024/01/16 10:58:41;;;;;;;7.40;2.03;;;3.60;99.90;;;;;;5015842;28;20033;-84
2024/01/16 11:01:12;;;;;;;5.87;1.83;;;3.90;99.90;;;;;;5016146;28;20101;-84
2024/01/16 11:03:48;;;;;;;4.70;1.77;;;4.30;99.90;;;;;;5031296;28;20040;-84
2024/01/16 11:06:18;;;;;;;7.20;2.17;;;4.80;99.90;;;;;;5031179;28;20389;-83
2024/01/16 11:08:51;;;;;;;8.47;2.30;;;5.00;99.90;;;;;;5015951;28;20500;-84
2024/01/16 11:11:17;;;;;;;7.63;2.10;;;5.30;99.90;;;;;;5014632;28;20021;-84
2024/01/16 11:13:44;;;;;;;10.10;2.10;;;5.40;99.90;;;;;;5030131;28;20036;-84
2024/01/16 11:16:11;;;;;;;8.67;3.23;;;5.50;99.90;;;;;;5015616;28;20470;-84
2024/01/16 11:18:37;;;;;;;9.63;2.00;;;5.60;99.90;;;;;;5030891;28;20069;-84
2024/01/16 11:21:05;;;;;;;8.83;2.40;;;5.60;99.90;;;;;;5015381;28;20519;-83
2024/01/16 11:23:32;;;;;;;6.80;2.10;;;5.60;99.90;;;;;;5030800;28;20026;-84
2024/01/16 11:25:58;;;;;;;7.00;2.00;;;5.70;99.90;;;;;;5015579;28;20030;-84
2024/01/16 11:28:31;;;;;;;6.17;1.90;;;5.90;99.90;;;;;;5015663;28;20025;-84
2024/01/16 11:30:57;;;;;;;5.30;1.73;;;6.30;99.90;;;;;;5030725;28;20022;-85
2024/01/16 11:33:31;;;;;;;6.13;2.03;;;6.70;99.90;;;;;;5030266;28;20026;-83
2024/01/16 11:35:57;;;;;;;5.90;1.93;;;6.90;99.90;;;;;;5030830;28;20112;-84
2024/01/16 11:38:26;;;;;;;8.07;2.07;;;7.00;99.90;;;;;;5014104;28;20109;-84
2024/01/16 11:40:53;;;;;;;5.90;1.70;;;7.10;99.90;;;;;;5030738;28;20386;-84
2024/01/16 11:43:35;;;;;;;7.77;1.40;;;7.20;98.90;;;;;;5015529;28;20497;-84
2024/01/16 11:46:07;;;;;;;10.50;1.63;;;7.20;97.90;;;;;;5015045;28;20026;-84
2024/01/16 11:48:33;;;;;;;7.20;2.03;;;7.20;96.60;;;;;;5015277;28;20033;-84
2024/01/16 11:50:59;;;;;;;6.60;2.17;;;7.30;95.40;;;;;;5015323;28;20030;-83
2024/01/16 11:53:41;;;;;;;9.47;2.40;;;7.40;95.40;;;;;;5030441;28;20049;-84
2024/01/16 11:56:13;;;;;;;6.47;1.50;;;7.40;94.30;;;;;;5015290;28;20026;-84
2024/01/16 11:59:08;;;;;;;5.70;1.67;;;7.50;93.90;;;;;;5014801;28;20030;-85
2024/01/16 12:01:35;;;;;;;8.87;1.70;;;7.60;92.30;;;;;;5015014;28;20363;-84
2024/01/16 12:04:05;;;;;;;8.00;2.00;;;7.80;92.40;;;;;;5015068;28;20433;-84
2024/01/16 12:06:31;;;;;;;6.97;2.13;;;7.90;92.00;;;;;;5015320;28;20501;-85
2024/01/16 12:09:17;;;;;;;9.43;2.10;;;8.00;91.00;;;;;;5014001;28;20026;-84
2024/01/16 12:11:45;;;;;;;6.65;1.83;;;8.30;90.10;;;;;;5015727;28;20021;-84
2024/01/16 12:14:11;;;;;;;9.17;2.40;;;8.40;89.60;;;;;;5014568;28;20030;-84
2024/01/16 12:16:38;;;;;;;5.87;1.87;;;8.50;89.30;;;;;;5014596;28;20492;-84
2024/01/16 12:19:11;;;;;;;9.35;1.92;;;8.60;88.00;;;;;;5013566;28;20029;-84
2024/01/16 12:21:43;;;;;;;7.38;1.70;;;8.80;89.20;;;;;;5029716;28;20045;-85
2024/01/16 12:24:10;;;;;;;5.18;1.73;;;9.10;88.90;;;;;;5029641;28;20022;-85
2024/01/16 12:26:36;;;;;;;7.40;2.30;;;9.60;89.50;;;;;;5014330;28;20567;-85
2024/01/16 12:29:02;;;;;;;6.20;1.83;;;10.00;88.20;;;;;;5014617;28;20018;-84
2024/01/16 12:31:29;;;;;;;7.63;1.90;;;10.40;86.80;;;;;;5013939;28;20018;-85
2024/01/16 12:34:15;;;;;;;9.52;2.55;;;10.80;84.70;;;;;;5014347;28;20057;-85
2024/01/16 12:36:40;;;;;;;6.00;1.90;;;11.40;83.60;;;;;;5014096;28;20034;-85
2024/01/16 12:39:12;;;;;;;6.13;1.88;;;11.80;81.40;;;;;;5014295;28;20433;-85
2024/01/16 12:41:43;;;;;;;8.65;1.92;;;12.00;76.00;;;;;;5014676;28;20022;-84
2024/01/16 12:44:09;;;;;;;6.47;1.80;;;12.20;75.50;;;;;;5014593;28;20026;-85
2024/01/16 12:46:34;;;;;;;5.55;1.60;;;12.10;74.00;;;;;;5014045;28;20532;-85
2024/01/16 12:49:06;;;;;;;7.28;2.30;;;12.10;74.80;;;;;;5012830;28;20083;-85
2024/01/16 12:51:31;;;;;;;6.13;1.83;;;12.10;73.10;;;;;;5014269;28;20048;-85